Time;durP1;ratioP1;P1;durP2;ratioP2;P2;SDS_P1;SDS_P2;PMS_P1;PMS_P2;Temp;Humidity;BMP_temperature;BMP_pressure;BME280_temperature;BME280_humidity;BME280_pressure;Samples;Min_cycle;Max_cycle;Signal;HPM_P1;HPM_P2
2021/11/04 00:01:01;;;;;;;12.20;7.67;;;;;;;-145.06;100.00;60892.56;4856922;28;20029;-87
2021/11/04 00:03:41;;;;;;;12.57;7.50;;;;;;;-145.06;100.00;60892.56;4870337;28;20267;-87
2021/11/04 00:06:20;;;;;;;11.90;7.65;;;;;;;-145.06;100.00;60892.56;4863680;28;20256;-87
2021/11/04 00:08:59;;;;;;;12.63;8.57;;;;;;;-145.06;100.00;60892.56;4861089;28;20115;-86
2021/11/04 00:11:38;;;;;;;14.68;9.45;;;;;;;-145.06;100.00;60892.56;4853945;28;20073;-86
2021/11/04 00:14:17;;;;;;;18.50;10.52;;;;;;;-145.06;100.00;60892.56;4854435;28;20037;-87
2021/11/04 00:16:56;;;;;;;15.35;9.68;;;;;;;-145.06;100.00;60892.56;4852415;28;20620;-86
2021/11/04 00:19:35;;;;;;;13.73;9.07;;;;;;;-145.06;100.00;60892.56;4850273;28;20040;-86
2021/11/04 00:22:14;;;;;;;11.37;7.33;;;;;;;-145.06;100.00;60892.56;4855098;28;20376;-86
2021/11/04 00:24:53;;;;;;;10.33;7.03;;;;;;;-145.06;100.00;60892.56;4852979;28;20276;-87
2021/11/04 00:27:32;;;;;;;11.77;7.40;;;;;;;-145.06;100.00;60892.56;4858078;28;20033;-86
2021/11/04 00:30:12;;;;;;;8.82;5.93;;;;;;;-145.06;100.00;60892.56;4853747;28;20288;-87
2021/11/04 00:32:54;;;;;;;9.10;6.60;;;;;;;-145.06;100.00;60892.56;4862061;28;20033;-86
2021/11/04 00:35:33;;;;;;;13.30;7.90;;;;;;;-145.06;100.00;60892.56;4864238;28;20467;-86
2021/11/04 00:38:12;;;;;;;9.77;6.43;;;;;;;-145.06;100.00;60892.56;4866889;28;20029;-87
2021/11/04 00:40:51;;;;;;;10.87;7.43;;;;;;;-145.06;100.00;60892.56;4873751;28;20028;-87
2021/11/04 00:43:30;;;;;;;9.35;6.88;;;;;;;-145.06;100.00;60892.56;4868064;28;20013;-86
2021/11/04 00:46:09;;;;;;;9.55;6.35;;;;;;;-145.06;100.00;60892.56;4863444;28;20029;-86
2021/11/04 00:48:48;;;;;;;9.82;6.75;;;;;;;-145.06;100.00;60892.56;4865167;28;20036;-87
2021/11/04 00:51:28;;;;;;;10.57;5.97;;;;;;;-145.06;100.00;60892.56;4871768;28;20029;-87
2021/11/04 00:54:07;;;;;;;7.55;5.57;;;;;;;-145.06;100.00;60892.56;4864236;28;20165;-86
2021/11/04 00:56:46;;;;;;;8.38;5.78;;;;;;;-145.06;100.00;60892.56;4870900;28;20041;-87
2021/11/04 00:59:25;;;;;;;10.37;6.93;;;;;;;-145.06;100.00;60892.56;4874311;28;20029;-87
2021/11/04 01:02:04;;;;;;;11.93;7.80;;;;;;;-145.06;100.00;60892.56;4885186;28;20033;-87
2021/11/04 01:04:43;;;;;;;12.13;8.05;;;;;;;8.40;100.00;60892.56;4879674;28;20029;-86
2021/11/04 01:07:22;;;;;;;12.60;7.75;;;;;;;-145.06;100.00;60892.56;4870849;28;20100;-86
2021/11/04 01:10:02;;;;;;;11.98;7.78;;;;;;;-145.06;100.00;60892.56;4873795;28;20037;-87
2021/11/04 01:12:41;;;;;;;;;;;;;;;-145.06;100.00;60892.56;4874310;28;20112;-86
2021/11/04 01:15:20;;;;;;;7.63;5.47;;;;;;;-145.06;100.00;60892.56;4868810;28;19909;-87
2021/11/04 01:17:59;;;;;;;9.82;6.20;;;;;;;-145.06;100.00;60892.56;4887743;28;20044;-86
2021/11/04 01:20:38;;;;;;;8.93;5.83;;;;;;;-145.06;100.00;60892.56;4872148;28;20029;-87
2021/11/04 01:23:17;;;;;;;8.07;5.50;;;;;;;-145.06;100.00;60892.56;4880867;28;20020;-86
2021/11/04 01:25:56;;;;;;;9.32;6.30;;;;;;;-145.06;100.00;60892.56;4867482;28;20033;-86
2021/11/04 01:28:35;;;;;;;10.07;6.15;;;;;;;-145.06;100.00;60892.56;4869832;28;20029;-87
2021/11/04 01:31:14;;;;;;;11.05;6.95;;;;;;;-145.06;100.00;60892.56;4869714;28;20041;-86
2021/11/04 01:33:53;;;;;;;10.75;7.10;;;;;;;8.18;100.00;60892.56;4872942;28;20033;-87
2021/11/04 01:36:32;;;;;;;11.43;7.37;;;;;;;-145.06;100.00;60892.56;4865299;28;20033;-86
2021/11/04 01:39:11;;;;;;;10.77;6.30;;;;;;;-145.06;100.00;60892.56;4869011;28;20025;-86
2021/11/04 01:41:52;;;;;;;10.73;6.72;;;;;;;-145.06;100.00;60892.56;4887071;28;20275;-87
2021/11/04 01:44:31;;;;;;;8.95;6.30;;;;;;;8.08;100.00;60892.56;4865317;28;20475;-86
2021/11/04 01:47:10;;;;;;;9.45;6.70;;;;;;;8.17;100.00;60892.56;4871962;28;20057;-86
2021/11/04 01:50:00;;;;;;;9.52;6.28;;;;;;;8.25;100.00;60892.56;4869189;28;20475;-87
2021/11/04 01:52:39;;;;;;;9.32;6.07;;;;;;;-145.06;100.00;60892.56;4856382;28;20018;-87
2021/11/04 01:55:29;;;;;;;9.23;6.18;;;;;;;-145.06;100.00;60892.56;4864364;28;20021;-87
2021/11/04 01:58:08;;;;;;;10.40;6.30;;;;;;;8.08;100.00;60892.56;4864678;28;20542;-86
2021/11/04 02:00:48;;;;;;;10.38;6.60;;;;;;;8.08;100.00;60892.56;4886965;28;20029;-86
2021/11/04 02:03:44;;;;;;;9.70;6.63;;;;;;;8.06;100.00;60892.56;4870903;28;20037;-87
2021/11/04 02:06:33;;;;;;;10.25;5.97;;;;;;;8.06;100.00;60892.56;4872950;28;20021;-87
2021/11/04 02:09:24;;;;;;;12.30;7.68;;;;;;;8.05;100.00;60892.56;4871251;28;20066;-86
2021/11/04 02:12:22;;;;;;;11.05;7.30;;;;;;;-145.06;100.00;60892.56;4882636;28;20036;-86
2021/11/04 02:15:02;;;;;;;13.18;7.95;;;;;;;-145.06;100.00;60892.56;4868273;28;20056;-86
2021/11/04 02:17:46;;;;;;;12.05;7.25;;;;;;;-145.06;100.00;60892.56;4872543;28;20029;-87
2021/11/04 02:20:46;;;;;;;11.25;6.97;;;;;;;8.03;100.00;60892.56;4872705;28;20025;-87
2021/11/04 02:23:33;;;;;;;11.07;6.70;;;;;;;-145.06;100.00;60892.56;4862551;28;20033;-87
2021/11/04 02:26:12;;;;;;;8.90;6.22;;;;;;;187.52;100.00;60892.56;4870897;28;20017;-86
2021/11/04 02:28:52;;;;;;;9.50;5.90;;;;;;;-145.06;100.00;60892.56;4872477;28;20037;-86
2021/11/04 02:31:33;;;;;;;8.88;5.45;;;;;;;-145.06;100.00;60892.56;4859258;28;20045;-87
2021/11/04 02:34:13;;;;;;;9.82;5.82;;;;;;;-145.06;100.00;60892.56;4865279;28;20534;-87
2021/11/04 02:36:55;;;;;;;9.10;5.80;;;;;;;-145.06;100.00;60892.56;4867965;28;20124;-87
2021/11/04 02:39:34;;;;;;;8.95;4.93;;;;;;;-145.06;100.00;60892.56;4866975;28;20028;-86
2021/11/04 02:42:13;;;;;;;10.40;5.93;;;;;;;8.08;100.00;60892.56;4868657;28;20025;-87
2021/11/04 02:44:53;;;;;;;10.90;6.03;;;;;;;8.08;100.00;60892.56;4874219;28;20471;-86
2021/11/04 02:47:35;;;;;;;9.02;6.03;;;;;;;8.08;100.00;60892.56;4873705;28;20056;-87
2021/11/04 02:50:16;;;;;;;11.55;6.78;;;;;;;8.73;100.00;60892.56;4876414;28;21312;-87
2021/11/04 02:52:56;;;;;;;11.65;6.68;;;;;;;-145.06;100.00;60892.56;4868855;28;20363;-86
2021/11/04 02:55:38;;;;;;;10.75;6.85;;;;;;;-145.06;100.00;60892.56;4876104;28;20024;-87
2021/11/04 02:58:18;;;;;;;11.77;7.05;;;;;;;-145.06;100.00;60892.56;4885411;28;20041;-87
2021/11/04 03:00:59;;;;;;;;;;;;;;;-145.06;100.00;60892.56;4869558;28;20029;-87
2021/11/04 03:03:38;;;;;;;8.82;6.03;;;;;;;-145.06;100.00;60892.56;4863543;28;19960;-86
2021/11/04 03:06:17;;;;;;;9.63;5.88;;;;;;;-145.06;100.00;60892.56;4883129;28;20061;-86
2021/11/04 03:08:56;;;;;;;10.03;6.40;;;;;;;8.05;100.00;60892.56;4874272;28;20041;-87
2021/11/04 03:11:35;;;;;;;10.50;6.45;;;;;;;8.06;100.00;60892.56;4866762;28;20283;-86
2021/11/04 03:14:15;;;;;;;10.40;6.33;;;;;;;8.06;100.00;60892.56;4873986;28;20048;-88
2021/11/04 03:16:55;;;;;;;12.50;6.85;;;;;;;-145.06;100.00;60892.56;4885897;28;20271;-86
2021/11/04 03:19:34;;;;;;;10.95;6.95;;;;;;;8.05;100.00;60892.56;4868378;28;20032;-86
2021/11/04 03:22:14;;;;;;;15.95;8.35;;;;;;;-145.06;100.00;60892.56;4868538;28;20021;-87
2021/11/04 03:24:53;;;;;;;13.23;8.02;;;;;;;-145.06;100.00;60892.56;4864826;28;20056;-87
2021/11/04 03:27:33;;;;;;;15.70;8.85;;;;;;;-145.06;100.00;60892.56;4872073;28;20032;-87
2021/11/04 03:30:21;;;;;;;11.85;6.53;;;;;;;-145.06;100.00;60892.56;4867403;28;20040;-87
2021/11/04 03:33:00;;;;;;;13.68;7.28;;;;;;;-145.06;100.00;60892.56;4868796;28;20029;-86
2021/11/04 03:35:41;;;;;;;11.32;6.50;;;;;;;-145.06;100.00;60892.56;4869443;28;20028;-86
2021/11/04 03:38:23;;;;;;;11.45;6.60;;;;;;;8.03;100.00;60892.56;4865260;28;20040;-86
2021/11/04 03:41:03;;;;;;;13.38;7.38;;;;;;;8.02;100.00;60892.56;4883362;28;20435;-87
2021/11/04 03:43:43;;;;;;;12.00;6.88;;;;;;;8.08;100.00;60892.56;4869872;28;20013;-87
2021/11/04 03:46:23;;;;;;;12.15;7.15;;;;;;;-145.06;100.00;60892.56;4870291;28;20037;-87
2021/11/04 03:49:04;;;;;;;12.45;6.90;;;;;;;-145.06;100.00;60892.56;4862128;28;20029;-85
2021/11/04 03:51:44;;;;;;;10.20;6.00;;;;;;;-145.06;100.00;60892.56;4866763;28;20029;-86
2021/11/04 03:54:23;;;;;;;;;;;;;;;7.94;100.00;60892.56;4866337;28;20492;-86
2021/11/04 03:57:03;;;;;;;16.33;8.90;;;;;;;-145.06;100.00;60892.56;4871259;28;19917;-86
2021/11/04 03:59:42;;;;;;;14.52;8.20;;;;;;;-145.06;100.00;60892.56;4875457;28;20068;-86
2021/11/04 04:02:22;;;;;;;17.05;9.57;;;;;;;-145.06;100.00;60892.56;4887484;28;20013;-86
2021/11/04 04:05:02;;;;;;;13.82;7.75;;;;;;;-145.06;100.00;60892.56;4868610;28;20029;-87
2021/11/04 04:07:43;;;;;;;13.07;7.50;;;;;;;7.92;100.00;60892.56;4869048;28;20033;-87
2021/11/04 04:10:23;;;;;;;12.82;7.35;;;;;;;7.79;100.00;60892.56;4873896;28;20459;-86
2021/11/04 04:13:02;;;;;;;;;;;;;;;-145.06;100.00;60892.56;4869261;28;20020;-86
2021/11/04 04:15:41;;;;;;;19.08;9.73;;;;;;;-145.06;100.00;60892.56;4866875;28;19917;-86
2021/11/04 04:18:20;;;;;;;16.02;9.02;;;;;;;-145.06;100.00;60892.56;4872840;28;20025;-87
2021/11/04 04:20:59;;;;;;;17.15;9.00;;;;;;;-145.06;100.00;60892.56;4865515;28;20576;-87
2021/11/04 04:23:37;;;;;;;17.30;8.55;;;;;;;-145.06;100.00;60892.56;4868178;28;20025;-86
2021/11/04 04:26:17;;;;;;;15.90;8.10;;;;;;;-145.06;100.00;60892.56;4882899;28;20056;-86
2021/11/04 04:28:56;;;;;;;15.82;8.10;;;;;;;-145.06;100.00;60892.56;4868320;28;20056;-86
2021/11/04 04:31:35;;;;;;;14.13;7.93;;;;;;;-145.06;100.00;60892.56;4882942;28;20041;-87
2021/11/04 04:34:14;;;;;;;11.88;6.95;;;;;;;-145.06;100.00;60892.56;4882692;28;20033;-87
2021/11/04 04:36:53;;;;;;;11.13;5.88;;;;;;;-145.06;100.00;60892.56;4867953;28;20024;-87
2021/11/04 04:39:33;;;;;;;10.00;5.78;;;;;;;-145.06;100.00;60892.56;4867702;28;20017;-87
2021/11/04 04:42:12;;;;;;;11.57;5.95;;;;;;;-145.06;100.00;60892.56;4866690;28;20029;-87
2021/11/04 04:44:51;;;;;;;11.87;6.33;;;;;;;-145.06;100.00;60892.56;4874129;28;20037;-86
2021/11/04 04:47:30;;;;;;;14.00;7.07;;;;;;;-145.06;100.00;60892.56;4873197;28;20029;-88
2021/11/04 04:50:10;;;;;;;16.88;7.65;;;;;;;-145.06;100.00;60892.56;4870620;28;20037;-88
2021/11/04 04:52:50;;;;;;;13.57;7.03;;;;;;;-145.06;100.00;60892.56;4868369;28;20061;-88
2021/11/04 04:55:29;;;;;;;11.47;5.93;;;;;;;-145.06;100.00;60892.56;4867904;28;20056;-87
2021/11/04 04:58:08;;;;;;;10.93;6.47;;;;;;;-145.06;100.00;60892.56;4875466;28;20256;-87
2021/11/04 05:00:47;;;;;;;10.30;5.83;;;;;;;-145.06;100.00;60892.56;4869554;28;20272;-87
2021/11/04 05:03:26;;;;;;;9.02;5.05;;;;;;;-145.06;100.00;60892.56;4862869;28;20276;-88
2021/11/04 05:06:05;;;;;;;9.52;5.40;;;;;;;-145.06;100.00;60892.56;4866587;28;20028;-87
2021/11/04 05:08:44;;;;;;;7.73;4.67;;;;;;;-145.06;100.00;60892.56;4871032;28;20112;-88
2021/11/04 05:11:23;;;;;;;7.80;5.03;;;;;;;-145.06;100.00;60892.56;4885828;28;20107;-87
2021/11/04 05:14:02;;;;;;;9.50;4.97;;;;;;;-145.06;100.00;60892.56;4874451;28;20271;-86
2021/11/04 05:16:41;;;;;;;9.48;5.55;;;;;;;-145.06;100.00;60892.56;4869549;28;20459;-88
2021/11/04 05:19:20;;;;;;;10.35;6.03;;;;;;;-145.06;100.00;60892.56;4858235;28;20478;-88
2021/11/04 05:21:59;;;;;;;9.32;5.30;;;;;;;-145.06;100.00;60892.56;4871151;28;20025;-88
2021/11/04 05:24:38;;;;;;;10.00;5.70;;;;;;;-145.06;100.00;60892.56;4874940;28;20359;-87
2021/11/04 05:27:17;;;;;;;12.17;7.00;;;;;;;-145.06;100.00;60892.56;4874347;28;20052;-86
2021/11/04 05:29:56;;;;;;;12.23;5.93;;;;;;;-145.06;100.00;60892.56;4887185;28;20064;-87
2021/11/04 05:32:35;;;;;;;10.93;5.97;;;;;;;-145.06;100.00;60892.56;4865257;28;20025;-87
2021/11/04 05:35:17;;;;;;;9.60;5.43;;;;;;;-145.06;100.00;60892.56;4867815;28;20041;-88
2021/11/04 05:37:56;;;;;;;9.48;5.40;;;;;;;-145.06;100.00;60892.56;4868467;28;20643;-87
2021/11/04 05:40:36;;;;;;;8.88;5.63;;;;;;;-145.06;100.00;60892.56;4886437;28;20032;-88
2021/11/04 05:43:15;;;;;;;8.52;4.68;;;;;;;-145.06;100.00;60892.56;4859114;28;20025;-88
2021/11/04 05:45:55;;;;;;;9.97;5.70;;;;;;;-145.06;100.00;60892.56;4880269;28;20033;-87
2021/11/04 05:48:34;;;;;;;10.73;5.95;;;;;;;-145.06;100.00;60892.56;4881862;28;20275;-88
2021/11/04 05:51:13;;;;;;;10.32;6.00;;;;;;;-145.06;100.00;60892.56;4870108;28;20033;-88
2021/11/04 05:53:52;;;;;;;8.70;5.22;;;;;;;-145.06;100.00;60892.56;4859606;28;20037;-87
2021/11/04 05:56:30;;;;;;;9.23;5.93;;;;;;;-145.06;100.00;60892.56;4865259;28;20033;-88
2021/11/04 05:59:09;;;;;;;10.65;5.55;;;;;;;-145.06;100.00;60892.56;4873258;28;20037;-88
2021/11/04 06:01:48;;;;;;;10.73;5.65;;;;;;;-145.06;100.00;60892.56;4864489;28;20060;-87
2021/11/04 06:04:34;;;;;;;9.75;5.75;;;;;;;-145.06;100.00;60892.56;4868761;28;20037;-88
2021/11/04 06:07:14;;;;;;;12.00;6.32;;;;;;;-145.06;100.00;60892.56;4872667;28;20064;-88
2021/11/04 06:09:53;;;;;;;;;;;;;;;-145.06;100.00;60892.56;4869957;28;20356;-88
2021/11/04 06:12:32;;;;;;;11.20;5.35;;;;;;;-145.06;100.00;60892.56;4864485;28;19917;-87
2021/11/04 06:15:11;;;;;;;11.45;6.05;;;;;;;-145.06;100.00;60892.56;4867994;28;20108;-87
2021/11/04 06:17:49;;;;;;;10.32;5.95;;;;;;;-145.06;100.00;60892.56;4867173;28;20033;-88
2021/11/04 06:20:29;;;;;;;12.63;6.85;;;;;;;-145.06;100.00;60892.56;4865379;28;20025;-89
2021/11/04 06:23:08;;;;;;;;;;;;;;;-145.06;100.00;60892.56;4872241;28;20064;-88
2021/11/04 06:25:47;;;;;;;11.57;6.13;;;;;;;-145.06;100.00;60892.56;4867307;28;19908;-87
2021/11/04 06:28:26;;;;;;;12.93;6.00;;;;;;;-145.06;100.00;60892.56;4872791;28;20280;-87
2021/11/04 06:31:05;;;;;;;12.23;5.85;;;;;;;-145.06;100.00;60892.56;4875262;28;20283;-89
2021/11/04 06:33:44;;;;;;;14.07;7.20;;;;;;;-145.06;100.00;60892.56;4868604;28;20072;-88
2021/11/04 06:36:24;;;;;;;15.60;8.13;;;;;;;-145.06;100.00;60892.56;4868902;28;20029;-88
2021/11/04 06:39:03;;;;;;;17.58;9.35;;;;;;;-145.06;100.00;60892.56;4876430;28;20029;-87
2021/11/04 06:41:42;;;;;;;20.20;10.50;;;;;;;-145.06;100.00;60892.56;4869705;28;20029;-88
2021/11/04 06:44:21;;;;;;;16.30;8.93;;;;;;;-145.06;100.00;60892.56;4880559;28;20613;-88
2021/11/04 06:47:01;;;;;;;14.13;7.83;;;;;;;-145.06;100.00;60892.56;4891533;28;20037;-88
2021/11/04 06:49:42;;;;;;;13.07;6.97;;;;;;;-145.06;100.00;60892.56;4881250;28;20045;-87
2021/11/04 06:52:25;;;;;;;15.07;7.63;;;;;;;-145.06;100.00;60892.56;4860445;28;20462;-87
2021/11/04 06:55:06;;;;;;;16.85;9.05;;;;;;;-145.06;100.00;60892.56;4861091;28;20722;-87
2021/11/04 06:57:50;;;;;;;17.52;8.18;;;;;;;-145.06;100.00;60892.56;4870318;28;20561;-87
2021/11/04 07:00:32;;;;;;;14.85;8.10;;;;;;;-145.06;100.00;60892.56;4868780;28;20025;-88
2021/11/04 07:03:27;;;;;;;15.63;8.73;;;;;;;-145.06;100.00;60892.56;4864993;28;20029;-88
2021/11/04 07:06:08;;;;;;;18.25;8.27;;;;;;;-145.06;100.00;60892.56;4860451;28;20033;-88
2021/11/04 07:08:55;;;;;;;18.17;9.27;;;;;;;-145.06;100.00;60892.56;4883945;28;20037;-87
2021/11/04 07:11:34;;;;;;;15.02;8.30;;;;;;;-145.06;100.00;60892.56;4867476;28;20024;-88
2021/11/04 07:14:13;;;;;;;14.27;8.07;;;;;;;-145.06;100.00;60892.56;4860276;28;20060;-88
2021/11/04 07:16:53;;;;;;;14.37;7.80;;;;;;;-145.06;100.00;60892.56;4861829;28;20045;-88
2021/11/04 07:19:32;;;;;;;16.20;8.30;;;;;;;-145.06;100.00;60892.56;4860267;28;20988;-88
2021/11/04 07:22:30;;;;;;;13.88;8.07;;;;;;;-145.06;100.00;60892.56;4859283;28;20024;-88
2021/11/04 07:25:11;;;;;;;13.80;7.60;;;;;;;-145.06;100.00;60892.56;4861321;28;20025;-88
2021/11/04 07:28:16;;;;;;;11.75;7.18;;;;;;;-145.06;100.00;60892.56;4858456;28;20415;-87
2021/11/04 07:30:55;;;;;;;13.38;7.85;;;;;;;-145.06;100.00;60892.56;4858605;28;20056;-89
2021/11/04 07:33:34;;;;;;;13.20;7.37;;;;;;;-145.06;100.00;60892.56;4861555;28;20117;-87
2021/11/04 07:36:16;;;;;;;15.30;8.23;;;;;;;-145.06;100.00;60892.56;4862121;28;20259;-88
2021/11/04 07:38:56;;;;;;;18.15;8.93;;;;;;;-145.06;100.00;60892.56;4861734;28;20036;-88
2021/11/04 07:41:35;;;;;;;16.65;8.48;;;;;;;-145.06;100.00;60892.56;4865441;28;20029;-88
2021/11/04 07:44:14;;;;;;;18.27;9.20;;;;;;;-145.06;100.00;60892.56;4862712;28;20049;-88
2021/11/04 07:46:53;;;;;;;17.30;9.68;;;;;;;-145.06;100.00;60892.56;4855570;28;20033;-87
2021/11/04 07:49:32;;;;;;;20.38;9.55;;;;;;;-145.06;100.00;60892.56;4863933;28;20107;-88
2021/11/04 07:52:12;;;;;;;19.58;10.60;;;;;;;-145.06;100.00;60892.56;4862900;28;20766;-88
2021/11/04 07:54:51;;;;;;;21.80;11.05;;;;;;;-145.06;100.00;60892.56;4859007;28;20037;-87
2021/11/04 07:57:32;;;;;;;20.70;10.93;;;;;;;-145.06;100.00;60892.56;4859637;28;20037;-88
2021/11/04 08:00:14;;;;;;;17.85;9.13;;;;;;;-145.06;100.00;60892.56;4863236;28;20030;-87
2021/11/04 08:02:53;;;;;;;16.42;9.32;;;;;;;7.91;100.00;60892.56;4863327;28;20033;-88
2021/11/04 08:05:32;;;;;;;17.95;9.60;;;;;;;7.90;100.00;60892.56;4863090;28;20033;-88
2021/11/04 08:08:11;;;;;;;16.07;8.13;;;;;;;7.91;100.00;60892.56;4864812;28;20474;-88
2021/11/04 08:10:54;;;;;;;14.57;8.27;;;;;;;-145.06;100.00;60892.56;4861807;28;20037;-86
2021/11/04 08:13:33;;;;;;;12.95;8.05;;;;;;;-145.06;100.00;60892.56;4858710;28;20033;-87
2021/11/04 08:16:12;;;;;;;14.90;7.90;;;;;;;-145.06;100.00;60892.56;4858894;28;20132;-87
2021/11/04 08:18:51;;;;;;;12.50;7.43;;;;;;;-145.06;100.00;60892.56;4859289;28;20695;-89
2021/11/04 08:21:31;;;;;;;13.43;7.70;;;;;;;-145.06;100.00;60892.56;4859696;28;20272;-88
2021/11/04 08:24:10;;;;;;;15.05;8.27;;;;;;;-145.06;100.00;60892.56;4860509;28;20036;-88
2021/11/04 08:26:48;;;;;;;16.02;9.45;;;;;;;-145.06;100.00;60892.56;4860631;28;20048;-88
2021/11/04 08:29:27;;;;;;;16.97;9.27;;;;;;;-145.06;100.00;60892.56;4860003;28;20025;-87
2021/11/04 08:32:08;;;;;;;14.98;8.23;;;;;;;-145.06;100.00;60892.56;4864284;28;20025;-87
2021/11/04 08:34:47;;;;;;;17.48;8.27;;;;;;;-145.06;100.00;60892.56;4852508;28;20037;-88
2021/11/04 08:37:26;;;;;;;18.27;7.87;;;;;;;-145.06;100.00;60892.56;4860423;28;20359;-88
2021/11/04 08:40:07;;;;;;;14.97;8.43;;;;;;;-145.06;100.00;60892.56;4862118;28;20033;-88
2021/11/04 08:42:47;;;;;;;15.52;8.35;;;;;;;-145.06;100.00;60892.56;4864188;28;20033;-87
2021/11/04 08:45:26;;;;;;;16.98;9.40;;;;;;;-145.06;100.00;60892.56;4865047;28;20060;-88
2021/11/04 08:48:05;;;;;;;15.37;8.43;;;;;;;-145.06;100.00;60892.56;4858755;28;20036;-88
2021/11/04 08:50:44;;;;;;;15.63;8.85;;;;;;;-145.06;100.00;60892.56;4862176;28;20033;-87
2021/11/04 08:53:24;;;;;;;16.02;9.00;;;;;;;-145.06;100.00;60892.56;4866993;28;20033;-88
2021/11/04 08:56:04;;;;;;;15.27;8.23;;;;;;;-145.06;100.00;60892.56;4858257;28;20021;-87
2021/11/04 08:58:43;;;;;;;13.35;7.75;;;;;;;-145.06;100.00;60892.56;4869868;28;20632;-88
2021/11/04 09:01:22;;;;;;;16.07;9.17;;;;;;;-145.06;100.00;60892.56;4856594;28;20045;-88
2021/11/04 09:04:02;;;;;;;;;;;;;;;-145.06;100.00;60892.56;4857357;28;20261;-87
2021/11/04 09:06:41;;;;;;;16.03;8.20;;;;;;;-145.06;100.00;60892.56;4863630;28;19913;-88
2021/11/04 09:09:21;;;;;;;15.82;8.20;;;;;;;-145.06;100.00;60892.56;4861281;28;20271;-87
2021/11/04 09:12:00;;;;;;;16.10;9.02;;;;;;;-145.06;100.00;60892.56;4862617;28;20108;-88
2021/11/04 09:14:39;;;;;;;12.37;7.53;;;;;;;-145.06;100.00;60892.56;4863402;28;20037;-88
2021/11/04 09:17:18;;;;;;;19.02;8.35;;;;;;;-145.06;100.00;60892.56;4862971;28;20034;-87
2021/11/04 09:19:58;;;;;;;12.35;7.20;;;;;;;-145.06;100.00;60892.56;4864041;28;20882;-88
2021/11/04 09:22:37;;;;;;;13.73;7.25;;;;;;;-145.06;100.00;60892.56;4863587;28;20451;-87
2021/11/04 09:25:19;;;;;;;11.55;6.63;;;;;;;-145.06;100.00;60892.56;4861478;28;20037;-87
2021/11/04 09:27:58;;;;;;;13.13;7.90;;;;;;;-145.06;100.00;60892.56;4861753;28;20785;-89
2021/11/04 09:30:38;;;;;;;11.27;7.18;;;;;;;-145.06;100.00;60892.56;4860484;28;20029;-87
2021/11/04 09:33:17;;;;;;;13.20;6.87;;;;;;;8.92;100.00;60892.56;4859991;28;20034;-86
2021/11/04 09:35:56;;;;;;;10.52;6.30;;;;;;;-145.06;100.00;60892.56;4859390;28;20737;-87
2021/11/04 09:38:35;;;;;;;10.55;6.32;;;;;;;-145.06;100.00;60892.56;4859151;28;20042;-88
2021/11/04 09:41:15;;;;;;;11.68;6.07;;;;;;;-145.06;100.00;60892.56;4862814;28;20032;-88
2021/11/04 09:43:54;;;;;;;;;;;;;;;-145.06;100.00;60892.56;4869344;28;20033;-87
2021/11/04 09:46:37;;;;;;;13.68;7.80;;;;;;;-145.06;100.00;60892.56;4870185;28;20588;-89
2021/11/04 09:49:16;;;;;;;15.07;9.05;;;;;;;-145.06;100.00;60892.56;4869213;28;20029;-89
2021/11/04 09:51:56;;;;;;;15.38;9.15;;;;;;;-145.06;100.00;60892.56;4862516;28;20033;-87
2021/11/04 09:54:35;;;;;;;15.80;9.32;;;;;;;-145.06;100.00;60892.56;4866886;28;20041;-87
2021/11/04 09:57:16;;;;;;;14.45;8.73;;;;;;;-145.06;100.00;60892.56;4865450;28;20064;-87
2021/11/04 09:59:55;;;;;;;;;;;;;;;-145.06;100.00;60892.56;4863070;28;20140;-88
2021/11/04 10:02:34;;;;;;;12.85;7.57;;;;;;;-145.06;100.00;60892.56;4858298;28;19917;-88
2021/11/04 10:05:16;;;;;;;12.20;7.45;;;;;;;-145.06;100.00;60892.56;4866629;28;20045;-89
2021/11/04 10:07:56;;;;;;;11.48;7.22;;;;;;;-145.06;100.00;60892.56;4864884;28;20025;-88
2021/11/04 10:10:36;;;;;;;13.07;8.10;;;;;;;-145.06;100.00;60892.56;4872628;28;20033;-86
2021/11/04 10:13:14;;;;;;;13.15;8.13;;;;;;;-145.06;100.00;60892.56;4870206;28;20041;-87
2021/11/04 10:15:54;;;;;;;13.00;7.70;;;;;;;-145.06;100.00;60892.56;4861864;28;20033;-87
2021/11/04 10:18:42;;;;;;;10.98;7.10;;;;;;;-145.06;100.00;60892.56;4863354;28;20025;-88
2021/11/04 10:21:29;;;;;;;11.00;6.60;;;;;;;-145.06;100.00;60892.56;4862780;28;20029;-88
2021/11/04 10:24:22;;;;;;;9.75;6.47;;;;;;;-145.06;100.00;60892.56;4881393;28;20020;-89
2021/11/04 10:27:02;;;;;;;12.75;8.02;;;;;;;-145.06;100.00;60892.56;4867885;28;20033;-87
2021/11/04 10:29:41;;;;;;;11.95;7.60;;;;;;;-145.06;100.00;60892.56;4866769;28;20029;-89
2021/11/04 10:32:31;;;;;;;11.55;7.63;;;;;;;-145.06;100.00;60892.56;4865929;28;20029;-88
2021/11/04 10:35:10;;;;;;;;;;;;;;;-145.06;100.00;60892.56;4871241;28;20048;-88
2021/11/04 10:37:50;;;;;;;12.70;7.97;;;;;;;-145.06;100.00;60892.56;4866460;28;19917;-88
2021/11/04 10:40:29;;;;;;;13.35;8.38;;;;;;;10.20;100.00;60892.56;4868631;28;20068;-89
2021/11/04 10:43:08;;;;;;;14.17;9.07;;;;;;;187.52;100.00;60892.56;4864562;28;20025;-88
2021/11/04 10:46:13;;;;;;;14.20;9.67;;;;;;;-145.06;100.00;60892.56;4857173;28;20064;-88
2021/11/04 10:49:03;;;;;;;11.73;7.95;;;;;;;10.68;100.00;60892.56;4869022;28;20032;-88
2021/11/04 10:51:44;;;;;;;11.77;8.23;;;;;;;10.68;100.00;60892.56;4865241;28;20124;-88
2021/11/04 10:54:23;;;;;;;13.60;9.05;;;;;;;10.16;100.00;60892.56;4866285;28;20029;-88
2021/11/04 10:57:02;;;;;;;12.60;8.52;;;;;;;10.15;100.00;60892.56;4864818;28;20605;-88
2021/11/04 10:59:46;;;;;;;12.90;8.60;;;;;;;21.08;100.00;60892.56;4861708;28;20029;-87
2021/11/04 11:02:25;;;;;;;12.40;8.45;;;;;;;187.52;100.00;60892.56;4863043;28;20029;-88
2021/11/04 11:05:28;;;;;;;13.87;9.67;;;;;;;-145.06;100.00;60892.56;4862991;28;20041;-89
2021/11/04 11:08:11;;;;;;;9.80;7.30;;;;;;;-145.06;100.00;60892.56;4869910;28;20486;-87
2021/11/04 11:10:50;;;;;;;11.02;7.72;;;;;;;-145.06;100.00;60892.56;4861895;28;20139;-88
2021/11/04 11:13:29;;;;;;;10.35;7.75;;;;;;;-145.06;100.00;60892.56;4860419;28;20037;-89
2021/11/04 11:16:08;;;;;;;12.80;8.63;;;;;;;-145.06;100.00;60892.56;4860355;28;20040;-88
2021/11/04 11:18:47;;;;;;;10.80;7.77;;;;;;;10.39;100.00;60892.56;4865166;28;21211;-88
2021/11/04 11:21:32;;;;;;;10.43;7.47;;;;;;;-145.06;100.00;60892.56;4865508;28;20036;-89
2021/11/04 11:24:14;;;;;;;8.93;6.97;;;;;;;10.48;100.00;60892.56;4865439;28;20025;-89
2021/11/04 11:26:53;;;;;;;10.57;7.50;;;;;;;-145.06;100.00;60892.56;4863294;28;20466;-89
2021/11/04 11:29:34;;;;;;;11.18;7.25;;;;;;;10.52;100.00;60892.56;4861604;28;20759;-87
2021/11/04 11:32:16;;;;;;;10.07;7.43;;;;;;;-145.06;100.00;60892.56;4860590;28;20037;-89
2021/11/04 11:35:17;;;;;;;9.27;6.72;;;;;;;-145.06;100.00;60892.56;4862983;28;20028;-89
2021/11/04 11:38:04;;;;;;;9.77;6.88;;;;;;;-145.06;100.00;60892.56;4861314;28;20057;-89
2021/11/04 11:41:01;;;;;;;8.02;5.90;;;;;;;-145.06;100.00;60892.56;4862074;28;20029;-89
2021/11/04 11:43:53;;;;;;;7.45;5.75;;;;;;;-145.06;100.00;60892.56;4858246;28;20025;-88
2021/11/04 11:47:04;;;;;;;8.30;5.45;;;;;;;-145.06;100.00;60892.56;4859857;28;20538;-89
2021/11/04 11:49:47;;;;;;;5.90;4.80;;;;;;;10.84;100.00;60892.56;4857659;28;20033;-90
2021/11/04 11:52:46;;;;;;;8.70;5.55;;;;;;;-145.06;100.00;60892.56;4865552;28;20782;-90
2021/11/04 11:55:40;;;;;;;6.80;5.03;;;;;;;-145.06;100.00;60892.56;4862703;28;20371;-89
2021/11/04 11:58:48;;;;;;;7.82;5.53;;;;;;;-145.06;100.00;60892.56;4861447;28;20072;-89
2021/11/04 12:01:44;;;;;;;7.00;4.90;;;;;;;-145.06;100.00;60892.56;4859909;28;20025;-89
2021/11/04 12:04:26;;;;;;;7.60;4.55;;;;;;;-145.06;100.00;60892.56;4862898;28;20029;-88
2021/11/04 12:07:31;;;;;;;6.72;4.53;;;;;;;-145.06;100.00;60892.56;4860315;28;20026;-90
2021/11/04 12:10:29;;;;;;;5.15;4.10;;;;;;;-145.06;100.00;60892.56;4861025;28;21075;-89
2021/11/04 12:13:41;;;;;;;7.03;4.57;;;;;;;-145.06;100.00;60892.56;4861441;28;20032;-89